Terminal Aerodrome Forecast
Issued by NWS

Home | Current Version | Previous Version | Text Only | Print | Product List | Glossary On
Versions: 1 2 3 4 5 6 7 8 9 10 11 12 13 14
081
FTUS46 KMTR 121141
TAFMRY
TAF
KMRY 121141Z 1212/1312 09008KT P6SM SCT002
      TEMPO 1212/1214 1/4SM FG
     FM121700 VRB03KT P6SM FEW006 SCT150
     FM122100 31008KT P6SM SCT200
     FM130400 22004KT 2SM BR BKN006
      TEMPO 1308/1312 1/2SM FG=

USA.gov is the U.S. government's official web portal to all federal, state and local government web resources and services.